Latest Weather Observations for Onslow Airport

IDW60801

Issued at 3:35 pm WST Wednesday 17 September 2014 (issued every 30 minutes, with the page automatically refreshed every 10 minutes)

About weather observations | Map of weather stations | Latest weather observations for WA | Other Formats
Station Details ID: 005017 Name: ONSLOW AIRPORT Lat: -21.67 Lon: 115.11 Height: 10.5 m
Data from the previous 72 hours. | See also: Recent months at Onslow Airport
Date/Time
WST
Temp
°C
App
Temp
°C
Dew
Point
Rel
Hum
%
Delta-T
°C
Wind Press
QNH
hPa
Press
MSL
hPa
Rain
since 9 am
mm
Dir
 
Spd
km/h
Gust
km/h
Spd
kts
Gust
kts
17/03:30pm 25.6 22.8 17.3 60 5.2 WNW 28 33 15 18 1013.8 1013.8 0.0
17/03:00pm 25.8 23.0 17.4 59 5.2 WNW 28 35 15 19 1013.8 1013.8 0.0
17/02:30pm 25.7 22.4 17.1 59 5.3 WNW 30 39 16 21 1014.0 1014.0 0.0
17/02:00pm 27.0 23.7 16.0 51 6.8 WNW 28 33 15 18 1014.1 1014.1 0.0
17/01:30pm 27.1 24.2 17.0 54 6.3 WNW 28 35 15 19 1014.3 1014.3 0.0
17/01:00pm 26.5 23.8 17.6 58 5.6 WNW 28 33 15 18 1014.6 1014.6 0.0
17/12:30pm 26.0 24.0 17.4 59 5.4 WNW 24 33 13 18 1014.8 1014.8 0.0
17/12:00pm 26.4 25.2 17.5 58 5.6 WNW 20 30 11 16 1015.1 1015.1 0.0
17/11:30am 26.3 24.9 16.5 54 6.0 NW 19 26 10 14 1015.5 1015.5 0.0
17/11:00am 26.1 24.5 16.6 55 5.9 NW 20 28 11 15 1015.9 1015.9 0.0
17/10:30am 26.1 26.0 16.1 54 6.1 SW 11 19 6 10 1016.0 1016.0 0.0
17/10:00am 25.2 24.3 14.9 52 6.2 SSW 13 20 7 11 1016.3 1016.3 0.0
17/09:30am 24.6 24.8 15.8 58 5.3 SSW 9 17 5 9 1016.0 1016.0 0.0
17/09:00am 23.8 23.1 16.3 63 4.6 S 15 20 8 11 1016.1 1016.1 -
17/08:30am 23.1 22.5 16.6 67 4.0 S 15 19 8 10 1015.8 1015.8 -
17/08:00am 21.6 21.2 16.3 72 3.2 SSW 13 17 7 9 1015.6 1015.6 -
17/07:30am 20.8 20.6 16.6 77 2.5 SSW 13 17 7 9 1015.4 1015.4 -
17/07:00am 19.6 20.0 16.4 82 1.9 S 9 15 5 8 1014.8 1014.8 -
17/06:30am 18.7 18.6 15.9 84 1.7 SSW 11 15 6 8 1014.5 1014.5 -
17/06:00am 18.6 18.0 15.7 83 1.7 S 13 19 7 10 1014.3 1014.3 -
17/05:30am 18.9 18.8 15.9 83 1.8 S 11 17 6 9 1014.1 1014.1 -
17/05:00am 18.8 19.1 15.9 83 1.7 S 9 15 5 8 1013.8 1013.8 -
17/04:30am 19.3 18.9 16.2 82 1.9 SSW 13 17 7 9 1013.3 1013.3 -
17/04:00am 18.8 19.3 15.5 81 1.9 SSW 7 9 4 5 1013.4 1013.4 -
17/03:30am 19.1 18.6 15.8 81 2.0 SW 13 19 7 10 1013.1 1013.1 -
17/03:00am 18.6 18.8 15.7 83 1.7 SW 9 13 5 7 1013.6 1013.6 0.0
17/02:30am 18.8 18.5 15.5 81 1.9 WSW 11 15 6 8 1013.4 1013.4 -
17/02:00am 19.0 18.8 15.7 81 2.0 WSW 11 15 6 8 1013.5 1013.5 -
17/01:30am 19.2 19.4 15.7 80 2.1 SW 9 13 5 7 1013.5 1013.5 -
17/01:00am 20.0 20.1 16.4 80 2.2 SW 11 13 6 7 1013.8 1013.8 -
17/12:30am 20.3 19.6 16.3 78 2.4 WSW 15 20 8 11 1013.9 1013.9 -
17/12:00am 20.6 19.4 16.2 76 2.6 WSW 17 20 9 11 1013.8 1013.8 -
 
Date/Time
WST
Temp
°C
App
Temp
°C
Dew
Point
Rel
Hum
%
Delta-T
°C
Wind Press
QNH
hPa
Press
MSL
hPa
Rain
since 9 am
mm
Dir
 
Spd
km/h
Gust
km/h
Spd
kts
Gust
kts
16/11:30pm 21.1 20.1 16.7 76 2.7 WSW 17 20 9 11 1013.9 1013.9 -
16/11:00pm 21.1 20.5 16.7 76 2.7 WSW 15 19 8 10 1014.1 1014.1 -
16/10:30pm 21.2 20.7 16.8 76 2.7 WSW 15 20 8 11 1014.0 1014.0 -
16/10:00pm 21.4 20.9 16.8 75 2.8 WSW 15 20 8 11 1014.1 1014.1 -
16/09:30pm 22.1 22.6 17.5 75 2.8 WSW 11 15 6 8 1013.9 1013.9 -
16/09:00pm 22.5 22.6 19.1 81 2.2 W 17 20 9 11 1013.8 1013.8 0.0
16/08:30pm 22.5 22.3 18.5 78 2.5 WNW 17 24 9 13 1013.8 1013.8 -
16/08:00pm 22.4 22.1 18.2 77 2.6 WNW 17 22 9 12 1013.2 1013.2 -
16/07:30pm 22.5 22.1 18.1 76 2.7 W 17 24 9 13 1012.9 1012.9 -
16/07:00pm 22.6 22.1 17.7 74 3.0 WNW 17 20 9 11 1012.6 1012.6 -
16/06:30pm 22.9 21.9 17.6 72 3.3 W 19 20 10 11 1012.3 1012.3 -
16/06:00pm 23.4 22.4 17.6 70 3.6 WNW 19 24 10 13 1012.3 1012.3 -
16/05:30pm 24.1 22.6 17.8 68 3.9 WNW 22 28 12 15 1011.9 1011.9 -
16/05:00pm 24.4 22.9 17.6 66 4.2 W 22 28 12 15 1011.8 1011.8 -
16/04:30pm 25.2 23.7 17.7 63 4.7 WNW 22 30 12 16 1011.7 1011.7 -
16/04:00pm 25.1 23.3 17.8 64 4.6 WNW 24 30 13 16 1011.6 1011.6 -
16/03:30pm 26.3 24.4 17.6 58 5.5 WNW 24 28 13 15 1011.5 1011.5 -
16/03:00pm 26.3 23.9 16.5 54 6.1 WNW 24 30 13 16 1011.5 1011.5 -
16/02:30pm 26.7 24.0 16.6 54 6.3 WNW 26 32 14 17 1011.8 1011.8 -
16/02:00pm 26.7 24.8 17.7 57 5.7 WNW 24 30 13 16 1012.0 1012.0 -
16/01:30pm 26.5 23.8 16.7 55 6.1 WNW 26 32 14 17 1012.1 1012.1 -
16/12:30pm 26.3 24.4 16.8 56 5.9 WNW 22 30 12 16 1012.9 1012.9 0.0
16/12:00pm 26.6 25.0 17.4 57 5.8 WNW 22 33 12 18 1013.2 1013.2 0.0
16/11:30am 26.2 24.9 16.7 56 5.9 WNW 19 26 10 14 1013.6 1013.6 0.0
16/11:00am 26.2 25.2 16.7 56 5.9 NW 17 24 9 13 1013.8 1013.8 0.0
16/10:30am 26.1 24.8 16.9 57 5.7 W 19 22 10 12 1014.2 1014.2 0.0
16/10:00am 25.6 25.6 16.2 56 5.8 S 11 17 6 9 1014.3 1014.3 0.0
16/09:30am 24.3 24.5 16.8 63 4.6 SW 11 17 6 9 1014.3 1014.3 0.0
16/09:00am 23.5 23.3 16.8 66 4.1 SW 13 20 7 11 1014.6 1014.6 0.0
16/08:30am 22.8 22.9 17.5 72 3.3 S 13 15 7 8 1014.6 1014.6 0.0
16/08:00am 21.7 22.7 17.7 78 2.5 SE 9 11 5 6 1014.4 1014.4 0.0
16/07:30am 20.5 21.6 17.9 85 1.6 SE 9 11 5 6 1014.3 1014.3 0.0
16/07:00am 19.1 19.9 17.2 89 1.2 S 9 13 5 7 1013.7 1013.7 0.0
16/06:30am 18.1 18.5 16.3 89 1.1 S 9 13 5 7 1013.4 1013.4 0.0
16/06:00am 18.3 18.3 16.3 88 1.2 SSW 11 13 6 7 1013.3 1013.3 0.0
16/05:30am 18.4 18.4 16.2 87 1.3 SSW 11 15 6 8 1013.2 1013.2 0.0
16/05:00am 18.7 18.4 16.5 87 1.3 SSW 13 17 7 9 1013.0 1013.0 0.0
16/04:30am 18.8 18.5 16.4 86 1.4 S 13 15 7 8 1012.9 1012.9 0.0
16/04:00am 19.2 18.2 16.6 85 1.6 SSW 17 20 9 11 1012.6 1012.6 0.0
16/03:30am 19.3 18.3 16.7 85 1.6 SSW 17 22 9 12 1012.7 1012.7 0.0
16/03:00am 19.5 18.5 16.7 84 1.7 SSW 17 20 9 11 1012.7 1012.7 0.0
16/02:30am 19.8 18.9 16.8 83 1.8 SSW 17 20 9 11 1012.9 1012.9 0.0
16/02:00am 19.9 19.3 16.7 82 1.9 SSW 15 19 8 10 1012.8 1012.8 0.0
16/01:30am 20.4 19.5 16.8 80 2.2 SSW 17 20 9 11 1012.9 1012.9 0.0
16/01:00am 20.7 19.7 16.7 78 2.4 SSW 17 20 9 11 1013.1 1013.1 0.0
16/12:30am 20.9 19.9 16.7 77 2.5 SW 17 22 9 12 1013.3 1013.3 0.0
16/12:00am 21.3 20.2 16.3 73 3.0 SW 17 22 9 12 1013.6 1013.6 0.0
 
Date/Time
WST
Temp
°C
App
Temp
°C
Dew
Point
Rel
Hum
%
Delta-T
°C
Wind Press
QNH
hPa
Press
MSL
hPa
Rain
since 9 am
mm
Dir
 
Spd
km/h
Gust
km/h
Spd
kts
Gust
kts
15/11:30pm 21.7 19.9 15.5 68 3.7 SW 19 22 10 12 1013.6 1013.6 0.0
15/11:00pm 22.0 19.7 14.6 63 4.4 SW 20 26 11 14 1013.7 1013.7 0.0
15/10:30pm 22.3 20.0 14.7 62 4.5 WSW 20 30 11 16 1014.0 1014.0 0.0
15/10:00pm 22.5 20.5 15.4 64 4.2 W 20 26 11 14 1014.0 1014.0 0.0
15/09:30pm 22.5 21.2 15.8 66 4.0 WSW 17 20 9 11 1013.8 1013.8 0.0
15/09:00pm 23.3 21.3 15.4 61 4.7 WSW 20 24 11 13 1013.8 1013.8 0.0
15/08:30pm 24.2 21.8 15.4 58 5.3 WSW 22 28 12 15 1013.6 1013.6 0.0
15/08:00pm 24.8 22.2 14.9 54 5.9 WSW 22 32 12 17 1013.5 1013.5 0.0
15/07:30pm 25.4 22.1 13.9 49 6.8 WSW 24 30 13 16 1013.1 1013.1 0.0
15/07:00pm 25.9 22.0 13.4 46 7.3 W 26 33 14 18 1012.7 1012.7 0.0
15/06:30pm 26.5 21.9 13.6 45 7.6 W 30 39 16 21 1012.5 1012.5 0.0
15/06:00pm 27.4 23.0 13.0 41 8.4 W 28 39 15 21 1012.4 1012.4 0.0
15/05:30pm 27.4 24.2 16.4 51 6.8 W 28 37 15 20 1012.2 1012.2 0.0
15/05:00pm 27.6 24.4 17.2 53 6.5 W 30 39 16 21 1012.1 1012.1 0.0
15/04:30pm 28.3 23.7 15.2 44 8.0 W 33 44 18 24 1012.0 1012.0 0.0
15/04:00pm 29.3 24.9 15.1 42 8.7 W 32 41 17 22 1011.9 1011.9 0.0
15/03:30pm 30.0 25.1 15.3 41 9.0 W 35 46 19 25 1011.8 1011.8 0.0
15/03:00pm 30.6 24.5 13.0 34 10.5 W 37 46 20 25 1011.8 1011.8 0.0
15/02:30pm 32.4 27.5 12.6 30 11.8 W 30 41 16 22 1011.9 1011.9 0.0
15/02:00pm 33.1 27.5 11.6 27 12.6 W 32 41 17 22 1011.8 1011.8 0.0
15/01:30pm 34.7 27.8 -0.1 11 17.1 WSW 26 41 14 22 1012.1 1012.1 0.0
15/01:00pm 34.8 27.1 0.0 11 17.2 SW 30 43 16 23 1012.3 1012.3 0.0
15/12:30pm 35.2 29.1 0.3 11 17.3 SW 22 32 12 17 1012.9 1012.9 0.0
15/12:00pm 34.2 27.8 0.8 12 16.6 SW 24 35 13 19 1013.4 1013.4 0.0
15/11:30am 33.6 27.1 0.3 12 16.4 SW 24 33 13 18 1013.9 1013.9 0.0
15/11:00am 33.1 26.7 1.0 13 15.9 SW 24 33 13 18 1014.6 1014.6 0.0
15/10:30am 32.7 26.4 1.7 14 15.5 SSW 24 33 13 18 1014.9 1014.9 0.0
15/10:00am 31.8 26.6 5.3 19 14.0 SSW 22 26 12 14 1015.1 1015.1 0.0
15/09:30am 30.1 25.8 5.4 21 12.9 S 17 22 9 12 1015.4 1015.4 0.0
15/09:00am 27.1 23.2 9.5 33 9.7 SSW 20 26 11 14 1015.0 1015.0 0.0
15/08:30am 24.9 21.7 11.1 42 7.8 SW 19 24 10 13 1015.2 1015.2 0.0
15/08:00am 21.6 18.6 12.5 56 5.1 SSW 20 24 11 13 1015.2 1015.2 0.0
15/07:30am 19.6 16.9 12.8 65 3.8 SW 19 24 10 13 1015.3 1015.3 0.0
15/07:00am 18.0 15.6 12.7 71 3.0 SW 17 20 9 11 1015.2 1015.2 0.0
15/06:30am 17.6 15.7 12.9 74 2.6 SSW 15 20 8 11 1015.1 1015.1 0.0
15/06:00am 17.8 15.5 13.1 74 2.6 S 17 22 9 12 1015.0 1015.0 0.0
15/05:30am 18.4 15.9 13.5 73 2.8 SSW 19 24 10 13 1014.6 1014.6 0.0
15/05:00am 18.4 16.3 13.5 73 2.8 SSW 17 22 9 12 1014.6 1014.6 0.0
15/04:30am 18.4 16.5 14.1 76 2.5 SSW 17 20 9 11 1014.8 1014.8 0.0
15/04:00am 18.6 16.7 14.3 76 2.5 S 17 22 9 12 1014.6 1014.6 0.0
15/03:30am 18.6 17.2 14.5 77 2.4 S 15 19 8 10 1014.8 1014.8 0.0
15/03:00am 18.7 16.8 14.2 75 2.6 S 17 22 9 12 1015.0 1015.0 0.0
15/02:30am 19.3 17.1 14.3 73 2.9 S 19 24 10 13 1014.8 1014.8 0.0
15/02:00am 20.0 17.8 14.8 72 3.0 SSW 20 26 11 14 1014.8 1014.8 0.0
15/01:30am 20.3 18.1 14.9 71 3.2 SSW 20 28 11 15 1014.9 1014.9 0.0
15/01:00am 20.5 18.3 14.8 70 3.3 SSW 20 24 11 13 1015.2 1015.2 0.0
15/12:30am 20.8 18.7 14.7 68 3.6 SSW 19 22 10 12 1015.4 1015.4 0.0
15/12:00am 21.4 19.3 14.6 65 4.0 SSW 19 24 10 13 1015.4 1015.4 0.0
 
Date/Time
WST
Temp
°C
App
Temp
°C
Dew
Point
Rel
Hum
%
Delta-T
°C
Wind Press
QNH
hPa
Press
MSL
hPa
Rain
since 9 am
mm
Dir
 
Spd
km/h
Gust
km/h
Spd
kts
Gust
kts
14/11:30pm 21.9 19.6 14.0 61 4.6 SSW 19 24 10 13 1015.4 1015.4 0.0
14/11:00pm 22.5 19.9 13.8 58 5.1 SSW 20 24 11 13 1015.4 1015.4 0.0
14/10:30pm 23.1 20.4 13.0 53 5.8 SSW 19 24 10 13 1015.5 1015.5 0.0
14/10:00pm 23.9 20.1 12.5 49 6.5 SSW 24 32 13 17 1015.5 1015.5 0.0
14/09:30pm 24.7 19.7 12.3 46 7.1 SW 30 37 16 20 1015.3 1015.3 0.0
14/09:00pm 25.5 20.2 11.3 41 8.0 SW 30 35 16 19 1015.4 1015.4 0.0
14/08:30pm 26.1 21.6 11.4 39 8.3 SW 26 35 14 19 1015.5 1015.5 0.0
14/08:00pm 26.7 21.8 10.0 35 9.3 SW 26 32 14 17 1015.3 1015.3 0.0
14/07:30pm 27.5 21.4 8.4 30 10.4 SW 30 37 16 20 1014.9 1014.9 0.0
14/07:00pm 27.4 23.6 11.0 36 9.3 WSW 22 30 12 16 1014.7 1014.7 0.0
14/06:30pm 29.2 25.0 8.3 27 11.4 WSW 20 26 11 14 1014.4 1014.4 0.0
14/06:00pm 31.4 25.3 5.0 19 13.8 WSW 26 35 14 19 1014.1 1014.1 0.0
14/05:30pm 32.6 25.6 -0.5 12 16.0 WSW 26 35 14 19 1014.0 1014.0 0.0
14/05:00pm 33.4 26.3 -1.0 11 16.5 WSW 26 35 14 19 1013.8 1013.8 0.0
14/04:30pm 33.2 25.5 0.0 12 16.2 W 30 37 16 20 1013.6 1013.6 0.0
14/04:00pm 33.5 27.2 8.9 22 13.9 W 32 41 17 22 1013.6 1013.6 0.0

Other Formats:

Comma delimited format used in spreadsheet applications
http://www.bom.gov.au/fwo/IDW60801/IDW60801.95305.axf

JavaScript Object Notation format (JSON) in row-major order
http://www.bom.gov.au/fwo/IDW60801/IDW60801.95305.json